createdAt,value
2019-02-27T00:02:35.713Z,101669.03
2019-02-27T00:07:39.307Z,101660.19
2019-02-27T00:12:42.824Z,101674.37
2019-02-27T00:17:51.122Z,101675.38
2019-02-27T00:22:52.070Z,101677.14
2019-02-27T00:27:55.637Z,101685.16
2019-02-27T00:32:59.187Z,101672.25
2019-02-27T00:38:02.787Z,101676.50
2019-02-27T00:43:06.345Z,101669.17
2019-02-27T00:48:09.922Z,101664.56
2019-02-27T00:53:13.470Z,101662.92
2019-02-27T00:58:17.078Z,101660.62
2019-02-27T01:03:20.625Z,101660.66
2019-02-27T01:08:27.256Z,101656.38
2019-02-27T01:13:31.264Z,101652.17
2019-02-27T01:18:34.802Z,101651.48
2019-02-27T01:23:38.329Z,101648.04
2019-02-27T01:28:45.426Z,101655.39
2019-02-27T01:33:47.333Z,101655.39
2019-02-27T01:38:50.924Z,101645.08
2019-02-27T01:43:54.557Z,101633.22
2019-02-27T01:48:58.456Z,101625.16
2019-02-27T01:54:02.002Z,101624.69
2019-02-27T01:59:05.606Z,101620.89
2019-02-27T02:04:09.132Z,101625.20
2019-02-27T02:09:34.865Z,101619.80
2019-02-27T02:14:44.591Z,101618.04
2019-02-27T02:19:53.973Z,101611.09
2019-02-27T02:25:11.948Z,101606.47
2019-02-27T02:30:44.186Z,101607.02
2019-02-27T02:36:09.319Z,101606.33
2019-02-27T02:41:34.082Z,101607.92
2019-02-27T02:46:49.514Z,101615.23
2019-02-27T02:52:11.330Z,101603.39
2019-02-27T02:57:37.685Z,101594.84
2019-02-27T03:03:02.424Z,101598.69
2019-02-27T03:08:20.189Z,101587.47
2019-02-27T03:13:41.553Z,101598.58
2019-02-27T03:18:49.466Z,101590.80
2019-02-27T03:23:56.146Z,101585.28
2019-02-27T03:29:05.732Z,101578.78
2019-02-27T03:34:15.190Z,101584.73
2019-02-27T03:39:55.459Z,101579.23
2019-02-27T03:45:31.802Z,101587.55
2019-02-27T03:50:49.612Z,101587.70
2019-02-27T03:56:18.105Z,101585.98
2019-02-27T04:01:31.401Z,101589.56
2019-02-27T04:06:47.059Z,101580.44
2019-02-27T04:11:50.636Z,101587.77
2019-02-27T04:16:54.236Z,101585.63
2019-02-27T04:22:01.079Z,101578.06
2019-02-27T04:27:03.091Z,101573.80
2019-02-27T04:32:09.612Z,101568.28
2019-02-27T04:37:11.921Z,101558.98
2019-02-27T04:42:15.469Z,101562.09
2019-02-27T04:47:19.077Z,101557.16
2019-02-27T04:52:24.412Z,101562.77
2019-02-27T04:57:27.942Z,101565.47
2019-02-27T05:02:31.461Z,101556.45
2019-02-27T05:07:35.090Z,101551.56
2019-02-27T05:12:38.615Z,101555.55
2019-02-27T05:17:42.163Z,101554.75
2019-02-27T05:22:45.755Z,101551.80
2019-02-27T05:27:49.276Z,101554.39
2019-02-27T05:32:52.881Z,101559.82
2019-02-27T05:37:56.432Z,101550.82
2019-02-27T05:43:00.018Z,101557.31
2019-02-27T05:48:03.566Z,101548.80
2019-02-27T05:53:07.157Z,101554.57
2019-02-27T05:58:10.711Z,101566.52
2019-02-27T06:03:15.922Z,101560.83
2019-02-27T06:08:19.578Z,101568.59
2019-02-27T06:13:23.161Z,101568.38
2019-02-27T06:18:26.679Z,101577.22
2019-02-27T06:23:30.251Z,101573.00
2019-02-27T06:28:33.799Z,101577.52
2019-02-27T06:33:37.378Z,101575.72
2019-02-27T06:38:40.903Z,101580.78
2019-02-27T06:43:44.506Z,101572.16
2019-02-27T06:48:48.054Z,101579.41
2019-02-27T06:53:51.632Z,101569.88
2019-02-27T06:58:55.150Z,101563.56
2019-02-27T07:03:58.746Z,101565.56
2019-02-27T07:09:02.268Z,101565.66
2019-02-27T07:14:05.889Z,101565.67
2019-02-27T07:19:09.446Z,101556.38
2019-02-27T07:24:13.061Z,101536.63
2019-02-27T07:29:21.739Z,101535.17
2019-02-27T07:34:21.938Z,101520.44
2019-02-27T07:39:25.460Z,101519.53
2019-02-27T07:44:29.012Z,101524.23
2019-02-27T07:49:32.589Z,101521.63
2019-02-27T07:54:36.134Z,101530.16
2019-02-27T07:59:39.709Z,101525.39
2019-02-27T08:04:43.246Z,101523.50
2019-02-27T08:09:46.810Z,101518.81
2019-02-27T08:14:50.324Z,101511.50
2019-02-27T08:19:53.891Z,101506.46
2019-02-27T08:24:57.413Z,101500.90
2019-02-27T08:30:01.009Z,101499.84
2019-02-27T08:35:05.322Z,101497.17
2019-02-27T08:40:11.212Z,101498.86
2019-02-27T08:45:20.503Z,101502.27
2019-02-27T08:50:24.883Z,101495.61
2019-02-27T08:55:28.438Z,101494.37
2019-02-27T09:00:33.572Z,101486.86
2019-02-27T09:05:37.121Z,101475.61
2019-02-27T09:10:40.732Z,101463.25
2019-02-27T09:15:44.246Z,101456.41
2019-02-27T09:20:47.850Z,101459.47
2019-02-27T09:25:57.254Z,101447.47
2019-02-27T09:30:56.946Z,101465.82
2019-02-27T09:36:00.470Z,101449.94
2019-02-27T09:41:04.862Z,101444.72
2019-02-27T09:46:08.421Z,101442.97
2019-02-27T09:51:11.983Z,101434.05
2019-02-27T09:56:15.539Z,101426.09
2019-02-27T10:01:19.140Z,101425.87
2019-02-27T10:06:22.663Z,101416.88
2019-02-27T10:11:26.251Z,101406.38
2019-02-27T10:16:29.782Z,101397.50
2019-02-27T10:21:33.357Z,101406.64
2019-02-27T10:26:36.878Z,101371.69
2019-02-27T10:31:40.494Z,101394.92
2019-02-27T10:36:44.049Z,101380.57
2019-02-27T10:41:50.549Z,101377.17
2019-02-27T10:46:57.240Z,101365.33
2019-02-27T10:51:59.738Z,101357.59
2019-02-27T10:57:03.282Z,101349.41
2019-02-27T11:02:09.731Z,101339.08
2019-02-27T11:07:13.218Z,101327.05
2019-02-27T11:12:17.764Z,101318.36
2019-02-27T11:17:21.321Z,101313.93
2019-02-27T11:22:24.951Z,101304.48
2019-02-27T11:27:28.470Z,101287.62
2019-02-27T11:32:32.056Z,101279.95
2019-02-27T11:37:35.614Z,101263.48
2019-02-27T11:42:39.202Z,101268.70
2019-02-27T11:47:47.736Z,101249.81
2019-02-27T11:52:49.224Z,101245.28
2019-02-27T11:57:52.991Z,101237.95
2019-02-27T12:02:56.708Z,101234.84
2019-02-27T12:08:00.233Z,101227.42
2019-02-27T12:13:03.947Z,101214.90
2019-02-27T12:18:07.476Z,101203.84
2019-02-27T12:23:11.104Z,101193.69
2019-02-27T12:28:18.263Z,101187.12
2019-02-27T12:33:20.565Z,101174.42
2019-02-27T12:38:24.078Z,101172.09
2019-02-27T12:43:27.675Z,101150.14
2019-02-27T12:48:31.187Z,101155.41
2019-02-27T12:53:34.780Z,101147.42
2019-02-27T12:58:38.324Z,101137.39
2019-02-27T13:03:42.999Z,101119.45
2019-02-27T13:08:46.641Z,101112.66
2019-02-27T13:13:50.242Z,101104.73
2019-02-27T13:18:53.749Z,101087.34
2019-02-27T13:23:57.329Z,101074.98
2019-02-27T13:29:01.008Z,101068.23
2019-02-27T13:34:04.888Z,101042.91
2019-02-27T13:39:08.600Z,101043.96
2019-02-27T13:44:12.158Z,101034.17
2019-02-27T13:49:15.698Z,101022.80
2019-02-27T13:54:19.271Z,101007.81
2019-02-27T13:59:22.793Z,100994.89
2019-02-27T14:04:26.803Z,100981.66
2019-02-27T14:09:30.347Z,100970.07
2019-02-27T14:14:33.940Z,100979.98
2019-02-27T14:19:37.567Z,100967.13
2019-02-27T14:24:41.202Z,100958.08
2019-02-27T14:29:44.997Z,100950.10
2019-02-27T14:34:48.588Z,100945.42
2019-02-27T14:39:52.125Z,100940.84
2019-02-27T14:44:55.709Z,100931.09
2019-02-27T14:50:00.147Z,100919.28
2019-02-27T14:55:04.449Z,100905.86
2019-02-27T15:00:24.376Z,100900.45
2019-02-27T15:05:27.645Z,100895.72
2019-02-27T15:10:31.218Z,100885.11
2019-02-27T15:15:34.763Z,100878.20
2019-02-27T15:20:40.983Z,100865.86
2019-02-27T15:25:43.612Z,100855.13
2019-02-27T15:30:47.488Z,100856.63
2019-02-27T15:35:55.032Z,100854.00
2019-02-27T15:40:56.320Z,100846.42
2019-02-27T15:45:59.842Z,100843.33
2019-02-27T15:51:03.420Z,100833.97
2019-02-27T15:56:08.577Z,100826.05
2019-02-27T16:01:12.820Z,100822.27
2019-02-27T16:06:16.335Z,100822.80
2019-02-27T16:11:19.950Z,100814.69
2019-02-27T16:16:23.523Z,100817.23
2019-02-27T16:21:28.713Z,100809.31
2019-02-27T16:26:32.258Z,100803.77
2019-02-27T16:31:37.118Z,100796.11
2019-02-27T16:36:41.193Z,100791.27
2019-02-27T16:41:45.132Z,100792.61
2019-02-27T16:46:48.816Z,100789.72
2019-02-27T16:51:52.395Z,100784.92
2019-02-27T16:56:57.902Z,100775.30
2019-02-27T17:02:03.940Z,100764.60
2019-02-27T17:07:06.513Z,100761.73
2019-02-27T17:12:10.306Z,100760.80
2019-02-27T17:17:16.125Z,100756.66
2019-02-27T17:22:19.170Z,100746.72
2019-02-27T17:27:22.722Z,100741.41
2019-02-27T17:32:27.486Z,100736.55
2019-02-27T17:37:31.619Z,100731.79
2019-02-27T17:42:35.222Z,100727.48
2019-02-27T17:47:38.870Z,100721.08
2019-02-27T17:52:42.452Z,100712.77
2019-02-27T17:57:46.381Z,100701.25
2019-02-27T18:02:50.270Z,100693.81
2019-02-27T18:07:53.791Z,100692.36
2019-02-27T18:13:01.240Z,100680.69
2019-02-27T18:18:07.091Z,100670.91
2019-02-27T18:23:11.706Z,100669.26
2019-02-27T18:28:15.411Z,100663.55
2019-02-27T18:33:19.042Z,100663.55
2019-02-27T18:38:27.507Z,100658.86
2019-02-27T18:43:30.146Z,100655.03
2019-02-27T18:48:33.334Z,100649.73
2019-02-27T18:53:37.020Z,100638.11
2019-02-27T18:58:40.567Z,100635.33
2019-02-27T19:03:44.244Z,100635.69
2019-02-27T19:08:47.836Z,100621.98
2019-02-27T19:13:53.105Z,100617.70
2019-02-27T19:18:56.835Z,100619.45
2019-02-27T19:24:00.424Z,100612.50
2019-02-27T19:29:05.009Z,100605.85
2019-02-27T19:34:10.329Z,100595.23
2019-02-27T19:39:14.152Z,100592.54
2019-02-27T19:44:17.769Z,100579.78
2019-02-27T19:49:21.439Z,100571.71
2019-02-27T19:54:25.047Z,100562.92
2019-02-27T19:59:29.575Z,100547.00
2019-02-27T20:04:33.195Z,100530.00
2019-02-27T20:09:36.973Z,100518.80
2019-02-27T20:14:40.628Z,100518.81
2019-02-27T20:19:44.349Z,100513.34
2019-02-27T20:24:47.998Z,100503.20
2019-02-27T20:29:51.699Z,100501.58
2019-02-27T20:34:55.299Z,100475.83
2019-02-27T20:39:59.500Z,100479.47
2019-02-27T20:45:03.433Z,100470.14
2019-02-27T20:50:12.779Z,100458.39
2019-02-27T20:55:16.425Z,100453.38
2019-02-27T21:00:24.100Z,100442.45
2019-02-27T21:05:27.958Z,100430.66
2019-02-27T21:10:33.124Z,100418.24
2019-02-27T21:15:36.655Z,100410.40
2019-02-27T21:20:42.199Z,100402.08
2019-02-27T21:25:50.245Z,100391.45
2019-02-27T21:30:53.911Z,100393.55
2019-02-27T21:36:02.485Z,100370.45
2019-02-27T21:41:03.224Z,100381.27
2019-02-27T21:46:08.371Z,100368.95
2019-02-27T21:51:13.696Z,100365.27
2019-02-27T21:56:18.042Z,100351.17
2019-02-27T22:01:22.639Z,100336.82
2019-02-27T22:06:27.442Z,100326.00
2019-02-27T22:11:31.672Z,100311.91
2019-02-27T22:16:35.334Z,100312.85
2019-02-27T22:21:38.910Z,100309.91
2019-02-27T22:26:42.430Z,100303.44
2019-02-27T22:31:46.395Z,100299.59
2019-02-27T22:36:49.936Z,100278.42
2019-02-27T22:41:54.116Z,100263.09
2019-02-27T22:46:57.639Z,100262.73
2019-02-27T22:52:01.234Z,100259.83
2019-02-27T22:57:05.354Z,100261.55
2019-02-27T23:02:08.941Z,100259.30
2019-02-27T23:07:12.537Z,100256.34
2019-02-27T23:12:16.112Z,100243.53
2019-02-27T23:17:19.665Z,100239.59
2019-02-27T23:22:23.598Z,100235.23
2019-02-27T23:27:27.161Z,100222.98
2019-02-27T23:32:30.697Z,100207.27
2019-02-27T23:37:34.546Z,100197.87
2019-02-27T23:42:38.107Z,100193.91
2019-02-27T23:47:41.622Z,100180.49
2019-02-27T23:52:45.181Z,100185.64
2019-02-27T23:57:48.708Z,100182.22
